sensor_id;sensor_type;location;lat;lon;timestamp;temperature;humidity
6270;DHT22;3168;51.684;6.954;2023-06-19T00:01:51;24.40;1.00
6270;DHT22;3168;51.684;6.954;2023-06-19T00:04:17;24.50;1.00
6270;DHT22;3168;51.684;6.954;2023-06-19T00:06:43;24.50;1.00
6270;DHT22;3168;51.684;6.954;2023-06-19T00:09:09;24.60;1.00
6270;DHT22;3168;51.684;6.954;2023-06-19T00:11:35;24.60;1.00
6270;DHT22;3168;51.684;6.954;2023-06-19T00:14:00;24.60;1.00
6270;DHT22;3168;51.684;6.954;2023-06-19T00:16:26;24.50;1.00
6270;DHT22;3168;51.684;6.954;2023-06-19T00:18:52;24.40;1.00
6270;DHT22;3168;51.684;6.954;2023-06-19T00:21:19;24.20;1.00
6270;DHT22;3168;51.684;6.954;2023-06-19T00:23:44;24.20;1.00
6270;DHT22;3168;51.684;6.954;2023-06-19T00:26:10;24.20;1.00
6270;DHT22;3168;51.684;6.954;2023-06-19T00:28:36;24.20;1.00
6270;DHT22;3168;51.684;6.954;2023-06-19T00:31:02;24.20;1.00
6270;DHT22;3168;51.684;6.954;2023-06-19T00:33:28;24.20;1.00
6270;DHT22;3168;51.684;6.954;2023-06-19T00:35:53;24.20;1.00
6270;DHT22;3168;51.684;6.954;2023-06-19T00:38:19;24.20;1.00
6270;DHT22;3168;51.684;6.954;2023-06-19T00:40:45;24.20;1.00
6270;DHT22;3168;51.684;6.954;2023-06-19T00:43:11;24.10;1.00
6270;DHT22;3168;51.684;6.954;2023-06-19T00:45:37;24.10;1.00
6270;DHT22;3168;51.684;6.954;2023-06-19T00:48:03;24.00;1.00
6270;DHT22;3168;51.684;6.954;2023-06-19T00:50:30;23.90;1.00
6270;DHT22;3168;51.684;6.954;2023-06-19T00:52:56;23.90;1.00
6270;DHT22;3168;51.684;6.954;2023-06-19T00:55:22;23.80;1.00
6270;DHT22;3168;51.684;6.954;2023-06-19T00:57:48;23.80;1.00
6270;DHT22;3168;51.684;6.954;2023-06-19T01:00:13;23.80;1.00
6270;DHT22;3168;51.684;6.954;2023-06-19T01:02:39;23.90;1.00
6270;DHT22;3168;51.684;6.954;2023-06-19T01:05:06;23.70;1.00
6270;DHT22;3168;51.684;6.954;2023-06-19T01:07:54;23.70;1.00
6270;DHT22;3168;51.684;6.954;2023-06-19T01:10:20;23.70;1.00
6270;DHT22;3168;51.684;6.954;2023-06-19T01:12:46;23.70;1.00
6270;DHT22;3168;51.684;6.954;2023-06-19T01:15:10;23.60;1.00
6270;DHT22;3168;51.684;6.954;2023-06-19T01:17:36;23.50;1.00
6270;DHT22;3168;51.684;6.954;2023-06-19T01:20:03;23.50;1.00
6270;DHT22;3168;51.684;6.954;2023-06-19T01:22:30;23.40;1.00
6270;DHT22;3168;51.684;6.954;2023-06-19T01:24:55;23.50;1.00
6270;DHT22;3168;51.684;6.954;2023-06-19T01:27:23;23.30;1.00
6270;DHT22;3168;51.684;6.954;2023-06-19T01:29:48;23.30;1.00
6270;DHT22;3168;51.684;6.954;2023-06-19T01:32:15;23.20;1.00
6270;DHT22;3168;51.684;6.954;2023-06-19T01:34:40;23.00;1.00
6270;DHT22;3168;51.684;6.954;2023-06-19T01:37:05;22.90;1.00
6270;DHT22;3168;51.684;6.954;2023-06-19T01:39:31;22.70;1.00
6270;DHT22;3168;51.684;6.954;2023-06-19T01:41:57;22.40;1.00
6270;DHT22;3168;51.684;6.954;2023-06-19T01:44:23;22.40;1.00
6270;DHT22;3168;51.684;6.954;2023-06-19T01:46:49;22.40;1.00
6270;DHT22;3168;51.684;6.954;2023-06-19T01:49:15;22.30;1.00
6270;DHT22;3168;51.684;6.954;2023-06-19T01:51:40;22.20;1.00
6270;DHT22;3168;51.684;6.954;2023-06-19T01:54:06;22.20;1.00
6270;DHT22;3168;51.684;6.954;2023-06-19T01:56:32;22.20;1.00
6270;DHT22;3168;51.684;6.954;2023-06-19T01:58:58;22.10;1.00
6270;DHT22;3168;51.684;6.954;2023-06-19T02:01:24;22.00;1.00
6270;DHT22;3168;51.684;6.954;2023-06-19T02:03:50;22.00;1.00
6270;DHT22;3168;51.684;6.954;2023-06-19T02:06:16;22.10;1.00
6270;DHT22;3168;51.684;6.954;2023-06-19T02:08:41;22.10;1.00
6270;DHT22;3168;51.684;6.954;2023-06-19T02:11:07;22.10;1.00
6270;DHT22;3168;51.684;6.954;2023-06-19T02:13:33;22.10;1.00
6270;DHT22;3168;51.684;6.954;2023-06-19T02:15:59;21.90;1.00
6270;DHT22;3168;51.684;6.954;2023-06-19T02:18:24;21.60;1.00
6270;DHT22;3168;51.684;6.954;2023-06-19T02:20:50;21.50;1.00
6270;DHT22;3168;51.684;6.954;2023-06-19T02:23:16;21.50;1.00
6270;DHT22;3168;51.684;6.954;2023-06-19T02:25:42;21.50;1.00
6270;DHT22;3168;51.684;6.954;2023-06-19T02:28:08;21.50;1.00
6270;DHT22;3168;51.684;6.954;2023-06-19T02:30:33;21.50;1.00
6270;DHT22;3168;51.684;6.954;2023-06-19T02:32:59;21.50;1.00
6270;DHT22;3168;51.684;6.954;2023-06-19T02:35:26;21.50;1.00
6270;DHT22;3168;51.684;6.954;2023-06-19T02:37:52;21.40;1.00
6270;DHT22;3168;51.684;6.954;2023-06-19T02:40:17;21.50;1.00
6270;DHT22;3168;51.684;6.954;2023-06-19T02:42:43;21.50;1.00
6270;DHT22;3168;51.684;6.954;2023-06-19T02:45:09;21.40;1.00
6270;DHT22;3168;51.684;6.954;2023-06-19T02:47:35;21.30;1.00
6270;DHT22;3168;51.684;6.954;2023-06-19T02:50:02;21.30;1.00
6270;DHT22;3168;51.684;6.954;2023-06-19T02:52:28;21.20;1.00
6270;DHT22;3168;51.684;6.954;2023-06-19T02:54:53;21.30;1.00
6270;DHT22;3168;51.684;6.954;2023-06-19T02:57:19;21.30;1.00
6270;DHT22;3168;51.684;6.954;2023-06-19T02:59:45;21.30;1.00
6270;DHT22;3168;51.684;6.954;2023-06-19T03:02:11;21.40;1.00
6270;DHT22;3168;51.684;6.954;2023-06-19T03:04:37;21.50;1.00
6270;DHT22;3168;51.684;6.954;2023-06-19T03:07:03;21.60;1.00
6270;DHT22;3168;51.684;6.954;2023-06-19T03:09:29;21.60;1.00
6270;DHT22;3168;51.684;6.954;2023-06-19T03:11:54;21.50;1.00
6270;DHT22;3168;51.684;6.954;2023-06-19T03:14:20;21.40;1.00
6270;DHT22;3168;51.684;6.954;2023-06-19T03:16:46;21.40;1.00
6270;DHT22;3168;51.684;6.954;2023-06-19T03:19:12;21.30;1.00
6270;DHT22;3168;51.684;6.954;2023-06-19T03:21:45;21.30;1.00
6270;DHT22;3168;51.684;6.954;2023-06-19T03:24:10;21.40;1.00
6270;DHT22;3168;51.684;6.954;2023-06-19T03:26:36;21.40;1.00
6270;DHT22;3168;51.684;6.954;2023-06-19T03:29:02;21.30;1.00
6270;DHT22;3168;51.684;6.954;2023-06-19T03:31:28;21.40;1.00
6270;DHT22;3168;51.684;6.954;2023-06-19T03:33:54;21.40;1.00
6270;DHT22;3168;51.684;6.954;2023-06-19T03:36:19;21.30;1.00
6270;DHT22;3168;51.684;6.954;2023-06-19T03:38:45;21.30;1.00
6270;DHT22;3168;51.684;6.954;2023-06-19T03:41:11;21.30;1.00
6270;DHT22;3168;51.684;6.954;2023-06-19T03:43:37;21.30;1.00
6270;DHT22;3168;51.684;6.954;2023-06-19T03:46:03;21.40;1.00
6270;DHT22;3168;51.684;6.954;2023-06-19T03:48:29;21.50;1.00
6270;DHT22;3168;51.684;6.954;2023-06-19T03:50:54;21.60;1.00
6270;DHT22;3168;51.684;6.954;2023-06-19T03:53:20;21.60;1.00
6270;DHT22;3168;51.684;6.954;2023-06-19T03:55:46;21.60;1.00
6270;DHT22;3168;51.684;6.954;2023-06-19T03:58:12;21.50;1.00
6270;DHT22;3168;51.684;6.954;2023-06-19T04:00:38;21.60;1.00
6270;DHT22;3168;51.684;6.954;2023-06-19T04:03:04;21.70;1.00
6270;DHT22;3168;51.684;6.954;2023-06-19T04:05:29;21.60;1.00
6270;DHT22;3168;51.684;6.954;2023-06-19T04:07:55;21.50;1.00
6270;DHT22;3168;51.684;6.954;2023-06-19T04:10:21;21.50;1.00
6270;DHT22;3168;51.684;6.954;2023-06-19T04:12:47;21.70;1.00
6270;DHT22;3168;51.684;6.954;2023-06-19T04:15:13;21.70;1.00
6270;DHT22;3168;51.684;6.954;2023-06-19T04:17:39;21.70;1.00
6270;DHT22;3168;51.684;6.954;2023-06-19T04:20:05;21.70;1.00
6270;DHT22;3168;51.684;6.954;2023-06-19T04:22:37;21.50;1.00
6270;DHT22;3168;51.684;6.954;2023-06-19T04:25:03;21.50;1.00
6270;DHT22;3168;51.684;6.954;2023-06-19T04:27:29;21.50;1.00
6270;DHT22;3168;51.684;6.954;2023-06-19T04:29:55;21.50;1.00
6270;DHT22;3168;51.684;6.954;2023-06-19T04:32:20;21.50;1.00
6270;DHT22;3168;51.684;6.954;2023-06-19T04:34:46;21.40;1.00
6270;DHT22;3168;51.684;6.954;2023-06-19T04:37:12;21.30;1.00
6270;DHT22;3168;51.684;6.954;2023-06-19T04:39:38;21.30;1.00
6270;DHT22;3168;51.684;6.954;2023-06-19T04:42:04;21.30;1.00
6270;DHT22;3168;51.684;6.954;2023-06-19T04:44:30;21.30;1.00
6270;DHT22;3168;51.684;6.954;2023-06-19T04:46:56;21.40;1.00
6270;DHT22;3168;51.684;6.954;2023-06-19T04:49:22;21.50;1.00
6270;DHT22;3168;51.684;6.954;2023-06-19T04:51:47;21.40;1.00
6270;DHT22;3168;51.684;6.954;2023-06-19T04:54:13;21.40;1.00
6270;DHT22;3168;51.684;6.954;2023-06-19T04:56:39;21.10;1.00
6270;DHT22;3168;51.684;6.954;2023-06-19T04:59:05;21.10;1.00
6270;DHT22;3168;51.684;6.954;2023-06-19T05:01:31;21.20;1.00
6270;DHT22;3168;51.684;6.954;2023-06-19T05:03:56;21.10;1.00
6270;DHT22;3168;51.684;6.954;2023-06-19T05:06:23;21.00;1.00
6270;DHT22;3168;51.684;6.954;2023-06-19T05:08:49;21.00;1.00
6270;DHT22;3168;51.684;6.954;2023-06-19T05:11:15;21.00;1.00
6270;DHT22;3168;51.684;6.954;2023-06-19T05:13:40;21.00;1.00
6270;DHT22;3168;51.684;6.954;2023-06-19T05:16:06;21.00;1.00
6270;DHT22;3168;51.684;6.954;2023-06-19T05:18:32;21.10;1.00
6270;DHT22;3168;51.684;6.954;2023-06-19T05:20:58;21.20;1.00
6270;DHT22;3168;51.684;6.954;2023-06-19T05:23:24;21.20;1.00
6270;DHT22;3168;51.684;6.954;2023-06-19T05:25:50;21.10;1.00
6270;DHT22;3168;51.684;6.954;2023-06-19T05:28:16;21.10;1.00
6270;DHT22;3168;51.684;6.954;2023-06-19T05:30:42;21.20;1.00
6270;DHT22;3168;51.684;6.954;2023-06-19T05:33:08;21.50;1.00
6270;DHT22;3168;51.684;6.954;2023-06-19T05:35:34;21.60;1.00
6270;DHT22;3168;51.684;6.954;2023-06-19T05:37:59;21.40;1.00
6270;DHT22;3168;51.684;6.954;2023-06-19T05:40:25;21.50;1.00
6270;DHT22;3168;51.684;6.954;2023-06-19T05:42:51;21.50;1.00
6270;DHT22;3168;51.684;6.954;2023-06-19T05:45:17;21.40;1.00
6270;DHT22;3168;51.684;6.954;2023-06-19T05:47:42;21.30;1.00
6270;DHT22;3168;51.684;6.954;2023-06-19T05:50:09;21.30;1.00
6270;DHT22;3168;51.684;6.954;2023-06-19T05:52:35;21.30;1.00
6270;DHT22;3168;51.684;6.954;2023-06-19T05:55:00;21.40;1.00
6270;DHT22;3168;51.684;6.954;2023-06-19T05:57:26;21.40;1.00
6270;DHT22;3168;51.684;6.954;2023-06-19T05:59:52;21.30;1.00
6270;DHT22;3168;51.684;6.954;2023-06-19T06:02:19;21.40;1.00
6270;DHT22;3168;51.684;6.954;2023-06-19T06:04:44;21.50;1.00
6270;DHT22;3168;51.684;6.954;2023-06-19T06:07:11;21.30;1.00
6270;DHT22;3168;51.684;6.954;2023-06-19T06:09:36;21.30;1.00
6270;DHT22;3168;51.684;6.954;2023-06-19T06:12:03;21.30;1.00
6270;DHT22;3168;51.684;6.954;2023-06-19T06:14:29;21.40;1.00
6270;DHT22;3168;51.684;6.954;2023-06-19T06:16:54;21.30;1.00
6270;DHT22;3168;51.684;6.954;2023-06-19T06:19:21;21.20;1.00
6270;DHT22;3168;51.684;6.954;2023-06-19T06:21:50;21.20;1.00
6270;DHT22;3168;51.684;6.954;2023-06-19T06:24:16;21.30;1.00
6270;DHT22;3168;51.684;6.954;2023-06-19T06:26:42;21.20;1.00
6270;DHT22;3168;51.684;6.954;2023-06-19T06:29:07;21.30;1.00
6270;DHT22;3168;51.684;6.954;2023-06-19T06:31:34;21.30;1.00
6270;DHT22;3168;51.684;6.954;2023-06-19T06:34:00;21.30;1.00
6270;DHT22;3168;51.684;6.954;2023-06-19T06:36:26;21.30;1.00
6270;DHT22;3168;51.684;6.954;2023-06-19T06:38:52;21.40;1.00
6270;DHT22;3168;51.684;6.954;2023-06-19T06:41:18;21.60;1.00
6270;DHT22;3168;51.684;6.954;2023-06-19T06:43:43;21.60;1.00
6270;DHT22;3168;51.684;6.954;2023-06-19T06:46:09;21.70;1.00
6270;DHT22;3168;51.684;6.954;2023-06-19T06:48:35;21.80;1.00
6270;DHT22;3168;51.684;6.954;2023-06-19T06:51:01;21.80;1.00
6270;DHT22;3168;51.684;6.954;2023-06-19T06:53:27;21.80;1.00
6270;DHT22;3168;51.684;6.954;2023-06-19T06:55:55;21.80;1.00
6270;DHT22;3168;51.684;6.954;2023-06-19T06:58:20;21.80;1.00
6270;DHT22;3168;51.684;6.954;2023-06-19T07:00:46;22.00;1.00
6270;DHT22;3168;51.684;6.954;2023-06-19T07:03:13;22.20;1.00
6270;DHT22;3168;51.684;6.954;2023-06-19T07:05:38;22.20;1.00
6270;DHT22;3168;51.684;6.954;2023-06-19T07:08:04;22.30;1.00
6270;DHT22;3168;51.684;6.954;2023-06-19T07:10:30;22.40;1.00
6270;DHT22;3168;51.684;6.954;2023-06-19T07:12:56;22.40;1.00
6270;DHT22;3168;51.684;6.954;2023-06-19T07:15:22;22.50;1.00
6270;DHT22;3168;51.684;6.954;2023-06-19T07:17:48;22.70;1.00
6270;DHT22;3168;51.684;6.954;2023-06-19T07:20:14;22.80;1.00
6270;DHT22;3168;51.684;6.954;2023-06-19T07:22:39;22.60;1.00
6270;DHT22;3168;51.684;6.954;2023-06-19T07:25:05;23.00;1.00
6270;DHT22;3168;51.684;6.954;2023-06-19T07:27:31;22.90;1.00
6270;DHT22;3168;51.684;6.954;2023-06-19T07:29:57;23.00;1.00
6270;DHT22;3168;51.684;6.954;2023-06-19T07:32:23;23.00;1.00
6270;DHT22;3168;51.684;6.954;2023-06-19T07:34:49;23.00;1.00
6270;DHT22;3168;51.684;6.954;2023-06-19T07:37:15;23.00;1.00
6270;DHT22;3168;51.684;6.954;2023-06-19T07:39:40;23.00;1.00
6270;DHT22;3168;51.684;6.954;2023-06-19T07:42:06;22.90;1.00
6270;DHT22;3168;51.684;6.954;2023-06-19T07:44:32;22.70;1.00
6270;DHT22;3168;51.684;6.954;2023-06-19T07:46:58;22.60;1.00
6270;DHT22;3168;51.684;6.954;2023-06-19T07:49:24;22.30;1.00
6270;DHT22;3168;51.684;6.954;2023-06-19T07:51:50;22.20;1.00
6270;DHT22;3168;51.684;6.954;2023-06-19T07:54:16;22.10;1.00
6270;DHT22;3168;51.684;6.954;2023-06-19T07:56:43;22.00;1.00
6270;DHT22;3168;51.684;6.954;2023-06-19T07:59:09;22.00;1.00
6270;DHT22;3168;51.684;6.954;2023-06-19T08:01:35;22.00;1.00
6270;DHT22;3168;51.684;6.954;2023-06-19T08:04:00;22.30;1.00
6270;DHT22;3168;51.684;6.954;2023-06-19T08:06:26;22.40;1.00
6270;DHT22;3168;51.684;6.954;2023-06-19T08:08:52;22.60;1.00
6270;DHT22;3168;51.684;6.954;2023-06-19T08:11:18;22.40;1.00
6270;DHT22;3168;51.684;6.954;2023-06-19T08:13:44;22.60;1.00
6270;DHT22;3168;51.684;6.954;2023-06-19T08:16:10;22.50;1.00
6270;DHT22;3168;51.684;6.954;2023-06-19T08:18:36;22.70;1.00
6270;DHT22;3168;51.684;6.954;2023-06-19T08:21:02;22.60;1.00
6270;DHT22;3168;51.684;6.954;2023-06-19T08:23:28;22.90;1.00
6270;DHT22;3168;51.684;6.954;2023-06-19T08:25:54;22.70;1.00
6270;DHT22;3168;51.684;6.954;2023-06-19T08:28:20;23.00;1.00
6270;DHT22;3168;51.684;6.954;2023-06-19T08:30:46;23.00;1.00
6270;DHT22;3168;51.684;6.954;2023-06-19T08:33:12;22.90;1.00
6270;DHT22;3168;51.684;6.954;2023-06-19T08:35:37;23.10;1.00
6270;DHT22;3168;51.684;6.954;2023-06-19T08:38:03;23.20;1.00
6270;DHT22;3168;51.684;6.954;2023-06-19T08:40:29;23.30;1.00
6270;DHT22;3168;51.684;6.954;2023-06-19T08:42:55;23.30;1.00
6270;DHT22;3168;51.684;6.954;2023-06-19T08:45:21;23.30;1.00
6270;DHT22;3168;51.684;6.954;2023-06-19T08:47:47;23.30;1.00
6270;DHT22;3168;51.684;6.954;2023-06-19T08:50:12;23.20;1.00
6270;DHT22;3168;51.684;6.954;2023-06-19T08:52:39;23.30;1.00
6270;DHT22;3168;51.684;6.954;2023-06-19T08:55:05;23.30;1.00
6270;DHT22;3168;51.684;6.954;2023-06-19T08:57:33;23.50;1.00
6270;DHT22;3168;51.684;6.954;2023-06-19T08:59:58;23.60;1.00
6270;DHT22;3168;51.684;6.954;2023-06-19T09:02:24;23.50;1.00
6270;DHT22;3168;51.684;6.954;2023-06-19T09:04:50;23.10;1.00
6270;DHT22;3168;51.684;6.954;2023-06-19T09:07:15;23.10;1.00
6270;DHT22;3168;51.684;6.954;2023-06-19T09:09:44;23.00;1.00
6270;DHT22;3168;51.684;6.954;2023-06-19T09:12:11;23.10;1.00
6270;DHT22;3168;51.684;6.954;2023-06-19T09:14:39;23.10;1.00
6270;DHT22;3168;51.684;6.954;2023-06-19T09:17:06;23.20;1.00
6270;DHT22;3168;51.684;6.954;2023-06-19T09:19:32;23.10;1.00
6270;DHT22;3168;51.684;6.954;2023-06-19T09:22:02;23.00;1.00
6270;DHT22;3168;51.684;6.954;2023-06-19T09:24:34;23.10;1.00
6270;DHT22;3168;51.684;6.954;2023-06-19T09:27:13;23.40;1.00
6270;DHT22;3168;51.684;6.954;2023-06-19T09:29:41;23.60;1.00
6270;DHT22;3168;51.684;6.954;2023-06-19T09:32:17;23.70;1.00
6270;DHT22;3168;51.684;6.954;2023-06-19T09:34:43;24.20;1.00
6270;DHT22;3168;51.684;6.954;2023-06-19T09:37:09;24.20;1.00
6270;DHT22;3168;51.684;6.954;2023-06-19T09:39:36;24.40;1.00
6270;DHT22;3168;51.684;6.954;2023-06-19T09:42:00;24.60;1.00
6270;DHT22;3168;51.684;6.954;2023-06-19T09:44:26;24.30;1.00
6270;DHT22;3168;51.684;6.954;2023-06-19T09:46:52;24.40;1.00
6270;DHT22;3168;51.684;6.954;2023-06-19T09:49:18;24.40;1.00
6270;DHT22;3168;51.684;6.954;2023-06-19T09:51:44;24.40;1.00
6270;DHT22;3168;51.684;6.954;2023-06-19T09:54:09;24.50;1.00
6270;DHT22;3168;51.684;6.954;2023-06-19T09:56:35;24.40;1.00
6270;DHT22;3168;51.684;6.954;2023-06-19T09:59:02;25.00;1.00
6270;DHT22;3168;51.684;6.954;2023-06-19T10:01:29;25.00;1.00
6270;DHT22;3168;51.684;6.954;2023-06-19T10:04:02;25.00;1.00
6270;DHT22;3168;51.684;6.954;2023-06-19T10:06:27;24.80;1.00
6270;DHT22;3168;51.684;6.954;2023-06-19T10:08:53;24.80;1.00
6270;DHT22;3168;51.684;6.954;2023-06-19T10:11:19;24.70;1.00
6270;DHT22;3168;51.684;6.954;2023-06-19T10:13:45;24.50;1.00
6270;DHT22;3168;51.684;6.954;2023-06-19T10:16:20;24.40;1.00
6270;DHT22;3168;51.684;6.954;2023-06-19T10:18:46;24.40;1.00
6270;DHT22;3168;51.684;6.954;2023-06-19T10:21:17;24.70;1.00
6270;DHT22;3168;51.684;6.954;2023-06-19T10:23:42;24.60;1.00
6270;DHT22;3168;51.684;6.954;2023-06-19T10:26:08;25.20;1.00
6270;DHT22;3168;51.684;6.954;2023-06-19T10:28:34;25.20;1.00
6270;DHT22;3168;51.684;6.954;2023-06-19T10:31:04;25.20;1.00
6270;DHT22;3168;51.684;6.954;2023-06-19T10:33:30;25.10;1.00
6270;DHT22;3168;51.684;6.954;2023-06-19T10:35:56;25.50;1.00
6270;DHT22;3168;51.684;6.954;2023-06-19T10:38:22;25.50;1.00
6270;DHT22;3168;51.684;6.954;2023-06-19T10:40:48;25.60;1.00
6270;DHT22;3168;51.684;6.954;2023-06-19T10:43:20;25.50;1.00
6270;DHT22;3168;51.684;6.954;2023-06-19T10:45:46;25.50;1.00
6270;DHT22;3168;51.684;6.954;2023-06-19T10:48:11;24.90;1.00
6270;DHT22;3168;51.684;6.954;2023-06-19T10:50:37;24.60;1.00
6270;DHT22;3168;51.684;6.954;2023-06-19T10:53:03;25.00;1.00
6270;DHT22;3168;51.684;6.954;2023-06-19T10:55:30;25.20;1.00
6270;DHT22;3168;51.684;6.954;2023-06-19T10:57:56;25.20;1.00
6270;DHT22;3168;51.684;6.954;2023-06-19T11:00:31;25.50;1.00
6270;DHT22;3168;51.684;6.954;2023-06-19T11:02:56;25.60;1.00
6270;DHT22;3168;51.684;6.954;2023-06-19T11:05:22;25.60;1.00
6270;DHT22;3168;51.684;6.954;2023-06-19T11:07:52;26.40;1.00
6270;DHT22;3168;51.684;6.954;2023-06-19T11:10:18;26.30;1.00
6270;DHT22;3168;51.684;6.954;2023-06-19T11:12:44;26.00;1.00
6270;DHT22;3168;51.684;6.954;2023-06-19T11:15:10;25.50;1.00
6270;DHT22;3168;51.684;6.954;2023-06-19T11:17:38;25.70;1.00
6270;DHT22;3168;51.684;6.954;2023-06-19T11:20:09;25.20;1.00
6270;DHT22;3168;51.684;6.954;2023-06-19T11:22:35;25.20;1.00
6270;DHT22;3168;51.684;6.954;2023-06-19T11:25:02;25.20;1.00
6270;DHT22;3168;51.684;6.954;2023-06-19T11:27:25;25.40;1.00
6270;DHT22;3168;51.684;6.954;2023-06-19T11:29:54;25.60;1.00
6270;DHT22;3168;51.684;6.954;2023-06-19T11:32:17;25.50;1.00
6270;DHT22;3168;51.684;6.954;2023-06-19T11:34:43;25.70;1.00
6270;DHT22;3168;51.684;6.954;2023-06-19T11:37:12;25.80;1.00
6270;DHT22;3168;51.684;6.954;2023-06-19T11:39:37;25.70;1.00
6270;DHT22;3168;51.684;6.954;2023-06-19T11:42:04;25.80;1.00
6270;DHT22;3168;51.684;6.954;2023-06-19T11:44:30;25.60;1.00
6270;DHT22;3168;51.684;6.954;2023-06-19T11:46:57;25.40;1.00
6270;DHT22;3168;51.684;6.954;2023-06-19T11:49:22;25.30;1.00
6270;DHT22;3168;51.684;6.954;2023-06-19T11:51:48;25.60;1.00
6270;DHT22;3168;51.684;6.954;2023-06-19T11:54:14;25.80;1.00
6270;DHT22;3168;51.684;6.954;2023-06-19T11:56:41;26.10;1.00
6270;DHT22;3168;51.684;6.954;2023-06-19T11:59:07;26.20;1.00
6270;DHT22;3168;51.684;6.954;2023-06-19T12:01:33;26.20;1.00
6270;DHT22;3168;51.684;6.954;2023-06-19T12:03:59;26.60;1.00
6270;DHT22;3168;51.684;6.954;2023-06-19T12:06:25;26.60;1.00
6270;DHT22;3168;51.684;6.954;2023-06-19T12:08:51;26.50;1.00
6270;DHT22;3168;51.684;6.954;2023-06-19T12:11:17;26.40;1.00
6270;DHT22;3168;51.684;6.954;2023-06-19T12:13:44;26.00;1.00
6270;DHT22;3168;51.684;6.954;2023-06-19T12:16:09;26.00;1.00
6270;DHT22;3168;51.684;6.954;2023-06-19T12:18:35;25.70;1.00
6270;DHT22;3168;51.684;6.954;2023-06-19T12:21:01;25.70;1.00
6270;DHT22;3168;51.684;6.954;2023-06-19T12:23:27;25.90;1.00
6270;DHT22;3168;51.684;6.954;2023-06-19T12:25:53;26.10;1.00
6270;DHT22;3168;51.684;6.954;2023-06-19T12:28:18;26.20;1.00
6270;DHT22;3168;51.684;6.954;2023-06-19T12:30:45;26.20;1.00
6270;DHT22;3168;51.684;6.954;2023-06-19T12:33:10;26.10;1.00
6270;DHT22;3168;51.684;6.954;2023-06-19T12:35:39;26.00;1.00
6270;DHT22;3168;51.684;6.954;2023-06-19T12:38:03;26.30;1.00
6270;DHT22;3168;51.684;6.954;2023-06-19T12:40:30;26.40;1.00
6270;DHT22;3168;51.684;6.954;2023-06-19T12:42:56;26.60;1.00
6270;DHT22;3168;51.684;6.954;2023-06-19T12:45:22;26.80;1.00
6270;DHT22;3168;51.684;6.954;2023-06-19T12:47:48;27.00;1.00
6270;DHT22;3168;51.684;6.954;2023-06-19T12:50:14;27.10;1.00
6270;DHT22;3168;51.684;6.954;2023-06-19T12:52:40;27.10;1.00
6270;DHT22;3168;51.684;6.954;2023-06-19T12:55:06;27.10;1.00
6270;DHT22;3168;51.684;6.954;2023-06-19T12:57:32;27.30;1.00
6270;DHT22;3168;51.684;6.954;2023-06-19T12:59:58;27.50;1.00
6270;DHT22;3168;51.684;6.954;2023-06-19T13:02:24;27.10;1.00
6270;DHT22;3168;51.684;6.954;2023-06-19T13:04:50;26.50;1.00
6270;DHT22;3168;51.684;6.954;2023-06-19T13:07:15;26.50;1.00
6270;DHT22;3168;51.684;6.954;2023-06-19T13:09:41;27.10;1.00
6270;DHT22;3168;51.684;6.954;2023-06-19T13:12:08;27.50;1.00
6270;DHT22;3168;51.684;6.954;2023-06-19T13:14:34;27.70;1.00
6270;DHT22;3168;51.684;6.954;2023-06-19T13:17:00;27.70;1.00
6270;DHT22;3168;51.684;6.954;2023-06-19T13:19:26;27.80;1.00
6270;DHT22;3168;51.684;6.954;2023-06-19T13:21:51;27.50;1.00
6270;DHT22;3168;51.684;6.954;2023-06-19T13:24:17;27.30;1.00
6270;DHT22;3168;51.684;6.954;2023-06-19T13:26:43;27.40;1.00
6270;DHT22;3168;51.684;6.954;2023-06-19T13:29:11;27.20;1.00
6270;DHT22;3168;51.684;6.954;2023-06-19T13:31:35;27.00;1.00
6270;DHT22;3168;51.684;6.954;2023-06-19T13:34:01;26.90;1.00
6270;DHT22;3168;51.684;6.954;2023-06-19T13:36:26;27.00;1.00
6270;DHT22;3168;51.684;6.954;2023-06-19T13:38:53;27.00;1.00
6270;DHT22;3168;51.684;6.954;2023-06-19T13:41:19;27.50;1.00
6270;DHT22;3168;51.684;6.954;2023-06-19T13:43:45;28.00;1.00
6270;DHT22;3168;51.684;6.954;2023-06-19T13:46:11;28.30;1.00
6270;DHT22;3168;51.684;6.954;2023-06-19T13:48:36;28.70;1.00
6270;DHT22;3168;51.684;6.954;2023-06-19T13:51:02;28.70;1.00
6270;DHT22;3168;51.684;6.954;2023-06-19T13:53:28;28.50;1.00
6270;DHT22;3168;51.684;6.954;2023-06-19T13:55:54;27.80;1.00
6270;DHT22;3168;51.684;6.954;2023-06-19T13:58:20;28.20;1.00
6270;DHT22;3168;51.684;6.954;2023-06-19T14:00:46;28.80;1.00
6270;DHT22;3168;51.684;6.954;2023-06-19T14:03:12;28.80;1.00
6270;DHT22;3168;51.684;6.954;2023-06-19T14:05:38;29.60;1.00
6270;DHT22;3168;51.684;6.954;2023-06-19T14:08:04;29.90;1.00
6270;DHT22;3168;51.684;6.954;2023-06-19T14:10:30;30.10;1.00
6270;DHT22;3168;51.684;6.954;2023-06-19T14:12:55;29.40;1.00
6270;DHT22;3168;51.684;6.954;2023-06-19T14:15:21;29.10;1.00
6270;DHT22;3168;51.684;6.954;2023-06-19T14:17:47;29.10;1.00
6270;DHT22;3168;51.684;6.954;2023-06-19T14:20:13;28.60;1.00
6270;DHT22;3168;51.684;6.954;2023-06-19T14:22:39;29.20;1.00
6270;DHT22;3168;51.684;6.954;2023-06-19T14:25:05;29.50;1.00
6270;DHT22;3168;51.684;6.954;2023-06-19T14:27:31;30.10;1.00
6270;DHT22;3168;51.684;6.954;2023-06-19T14:29:57;29.80;1.00
6270;DHT22;3168;51.684;6.954;2023-06-19T14:32:22;29.40;1.00
6270;DHT22;3168;51.684;6.954;2023-06-19T14:34:48;28.70;1.00
6270;DHT22;3168;51.684;6.954;2023-06-19T14:37:14;27.80;1.00
6270;DHT22;3168;51.684;6.954;2023-06-19T14:39:40;27.50;1.00
6270;DHT22;3168;51.684;6.954;2023-06-19T14:42:06;28.00;1.00
6270;DHT22;3168;51.684;6.954;2023-06-19T14:44:32;28.50;1.00
6270;DHT22;3168;51.684;6.954;2023-06-19T14:46:57;29.00;1.00
6270;DHT22;3168;51.684;6.954;2023-06-19T14:49:23;29.30;1.00
6270;DHT22;3168;51.684;6.954;2023-06-19T14:51:49;29.90;1.00
6270;DHT22;3168;51.684;6.954;2023-06-19T14:54:15;30.60;1.00
6270;DHT22;3168;51.684;6.954;2023-06-19T14:56:41;30.10;1.00
6270;DHT22;3168;51.684;6.954;2023-06-19T14:59:06;30.80;1.00
6270;DHT22;3168;51.684;6.954;2023-06-19T15:01:32;30.70;1.00
6270;DHT22;3168;51.684;6.954;2023-06-19T15:03:58;30.60;1.00
6270;DHT22;3168;51.684;6.954;2023-06-19T15:06:24;29.90;1.00
6270;DHT22;3168;51.684;6.954;2023-06-19T15:08:50;29.30;1.00
6270;DHT22;3168;51.684;6.954;2023-06-19T15:11:15;29.20;1.00
6270;DHT22;3168;51.684;6.954;2023-06-19T15:13:41;29.70;1.00
6270;DHT22;3168;51.684;6.954;2023-06-19T15:16:08;30.30;1.00
6270;DHT22;3168;51.684;6.954;2023-06-19T15:18:34;30.20;1.00
6270;DHT22;3168;51.684;6.954;2023-06-19T15:20:59;30.40;1.00
6270;DHT22;3168;51.684;6.954;2023-06-19T15:23:25;31.30;1.00
6270;DHT22;3168;51.684;6.954;2023-06-19T15:25:51;31.30;1.00
6270;DHT22;3168;51.684;6.954;2023-06-19T15:28:17;31.10;1.00
6270;DHT22;3168;51.684;6.954;2023-06-19T15:30:43;31.10;1.00
6270;DHT22;3168;51.684;6.954;2023-06-19T15:33:08;30.80;1.00
6270;DHT22;3168;51.684;6.954;2023-06-19T15:35:34;31.00;1.00
6270;DHT22;3168;51.684;6.954;2023-06-19T15:38:00;31.30;1.00
6270;DHT22;3168;51.684;6.954;2023-06-19T15:40:26;31.30;1.00
6270;DHT22;3168;51.684;6.954;2023-06-19T15:42:53;31.50;1.00
6270;DHT22;3168;51.684;6.954;2023-06-19T15:45:18;31.60;1.00
6270;DHT22;3168;51.684;6.954;2023-06-19T15:47:44;31.60;1.00
6270;DHT22;3168;51.684;6.954;2023-06-19T15:50:10;31.50;1.00
6270;DHT22;3168;51.684;6.954;2023-06-19T15:52:36;31.70;1.00
6270;DHT22;3168;51.684;6.954;2023-06-19T15:55:02;31.60;1.00
6270;DHT22;3168;51.684;6.954;2023-06-19T15:57:27;30.70;1.00
6270;DHT22;3168;51.684;6.954;2023-06-19T15:59:53;30.50;1.00
6270;DHT22;3168;51.684;6.954;2023-06-19T16:02:19;29.50;1.00
6270;DHT22;3168;51.684;6.954;2023-06-19T16:04:45;29.00;1.00
6270;DHT22;3168;51.684;6.954;2023-06-19T16:07:11;28.90;1.00
6270;DHT22;3168;51.684;6.954;2023-06-19T16:09:37;28.90;1.00